sensor_id;sensor_type;location;lat;lon;timestamp;P1;durP1;ratioP1;P2;durP2;ratioP2
5742;SDS011;2896;53.500;10.020;2023-05-31T00:00:04;6.13;;;4.40;;
5742;SDS011;2896;53.500;10.020;2023-05-31T00:02:32;5.80;;;4.57;;
5742;SDS011;2896;53.500;10.020;2023-05-31T00:04:59;8.07;;;3.97;;
5742;SDS011;2896;53.500;10.020;2023-05-31T00:07:25;7.30;;;3.97;;
5742;SDS011;2896;53.500;10.020;2023-05-31T00:09:53;7.57;;;4.17;;
5742;SDS011;2896;53.500;10.020;2023-05-31T00:12:20;4.20;;;3.80;;
5742;SDS011;2896;53.500;10.020;2023-05-31T00:14:46;8.20;;;4.87;;
5742;SDS011;2896;53.500;10.020;2023-05-31T00:17:13;5.23;;;4.43;;
5742;SDS011;2896;53.500;10.020;2023-05-31T00:19:39;6.87;;;4.80;;
5742;SDS011;2896;53.500;10.020;2023-05-31T00:22:06;6.60;;;4.17;;
5742;SDS011;2896;53.500;10.020;2023-05-31T00:24:33;5.10;;;3.57;;
5742;SDS011;2896;53.500;10.020;2023-05-31T00:27:01;5.27;;;3.77;;
5742;SDS011;2896;53.500;10.020;2023-05-31T00:29:27;7.20;;;4.80;;
5742;SDS011;2896;53.500;10.020;2023-05-31T00:31:55;5.50;;;4.00;;
5742;SDS011;2896;53.500;10.020;2023-05-31T00:34:22;5.10;;;4.10;;
5742;SDS011;2896;53.500;10.020;2023-05-31T00:36:48;6.40;;;4.13;;
5742;SDS011;2896;53.500;10.020;2023-05-31T00:39:15;5.80;;;4.00;;
5742;SDS011;2896;53.500;10.020;2023-05-31T00:41:42;4.47;;;3.60;;
5742;SDS011;2896;53.500;10.020;2023-05-31T00:44:11;4.23;;;3.90;;
5742;SDS011;2896;53.500;10.020;2023-05-31T00:46:38;13.63;;;4.90;;
5742;SDS011;2896;53.500;10.020;2023-05-31T00:49:05;5.50;;;4.20;;
5742;SDS011;2896;53.500;10.020;2023-05-31T00:51:32;5.17;;;4.10;;
5742;SDS011;2896;53.500;10.020;2023-05-31T00:54:01;5.23;;;3.50;;
5742;SDS011;2896;53.500;10.020;2023-05-31T00:56:28;7.50;;;3.43;;
5742;SDS011;2896;53.500;10.020;2023-05-31T01:01:24;4.33;;;3.93;;
5742;SDS011;2896;53.500;10.020;2023-05-31T01:03:52;5.33;;;4.30;;
5742;SDS011;2896;53.500;10.020;2023-05-31T01:06:20;7.13;;;4.00;;
5742;SDS011;2896;53.500;10.020;2023-05-31T01:08:48;7.97;;;4.10;;
5742;SDS011;2896;53.500;10.020;2023-05-31T01:11:17;10.43;;;3.10;;
5742;SDS011;2896;53.500;10.020;2023-05-31T01:13:51;5.17;;;4.03;;
5742;SDS011;2896;53.500;10.020;2023-05-31T01:16:28;4.70;;;3.87;;
5742;SDS011;2896;53.500;10.020;2023-05-31T01:18:59;3.60;;;3.20;;
5742;SDS011;2896;53.500;10.020;2023-05-31T01:21:32;7.43;;;3.57;;
5742;SDS011;2896;53.500;10.020;2023-05-31T01:24:14;7.17;;;4.10;;
5742;SDS011;2896;53.500;10.020;2023-05-31T01:26:54;4.20;;;3.87;;
5742;SDS011;2896;53.500;10.020;2023-05-31T01:29:26;4.60;;;4.20;;
5742;SDS011;2896;53.500;10.020;2023-05-31T01:31:54;5.73;;;4.70;;
5742;SDS011;2896;53.500;10.020;2023-05-31T01:34:23;4.40;;;4.00;;
5742;SDS011;2896;53.500;10.020;2023-05-31T01:36:50;4.60;;;3.87;;
5742;SDS011;2896;53.500;10.020;2023-05-31T01:39:16;5.53;;;4.00;;
5742;SDS011;2896;53.500;10.020;2023-05-31T01:41:45;6.50;;;3.77;;
5742;SDS011;2896;53.500;10.020;2023-05-31T01:44:15;24.03;;;5.00;;
5742;SDS011;2896;53.500;10.020;2023-05-31T01:46:44;7.53;;;4.13;;
5742;SDS011;2896;53.500;10.020;2023-05-31T01:49:11;10.33;;;4.23;;
5742;SDS011;2896;53.500;10.020;2023-05-31T01:51:39;6.80;;;4.80;;
5742;SDS011;2896;53.500;10.020;2023-05-31T01:54:08;5.40;;;4.67;;
5742;SDS011;2896;53.500;10.020;2023-05-31T01:56:35;4.37;;;3.97;;
5742;SDS011;2896;53.500;10.020;2023-05-31T01:59:03;4.43;;;3.73;;
5742;SDS011;2896;53.500;10.020;2023-05-31T02:01:34;7.37;;;4.83;;
5742;SDS011;2896;53.500;10.020;2023-05-31T02:04:02;6.00;;;4.73;;
5742;SDS011;2896;53.500;10.020;2023-05-31T02:06:29;4.20;;;3.90;;
5742;SDS011;2896;53.500;10.020;2023-05-31T02:08:56;10.80;;;4.27;;
5742;SDS011;2896;53.500;10.020;2023-05-31T02:11:23;7.17;;;4.80;;
5742;SDS011;2896;53.500;10.020;2023-05-31T02:13:50;4.90;;;4.30;;
5742;SDS011;2896;53.500;10.020;2023-05-31T02:16:17;12.20;;;5.07;;
5742;SDS011;2896;53.500;10.020;2023-05-31T02:18:45;4.47;;;4.07;;
5742;SDS011;2896;53.500;10.020;2023-05-31T02:21:12;6.23;;;4.40;;
5742;SDS011;2896;53.500;10.020;2023-05-31T02:23:39;5.20;;;4.10;;
5742;SDS011;2896;53.500;10.020;2023-05-31T02:26:05;5.10;;;4.33;;
5742;SDS011;2896;53.500;10.020;2023-05-31T02:28:32;6.23;;;4.57;;
5742;SDS011;2896;53.500;10.020;2023-05-31T02:30:59;5.80;;;4.30;;
5742;SDS011;2896;53.500;10.020;2023-05-31T02:33:26;6.80;;;4.60;;
5742;SDS011;2896;53.500;10.020;2023-05-31T02:35:54;5.10;;;3.87;;
5742;SDS011;2896;53.500;10.020;2023-05-31T02:38:23;9.33;;;4.70;;
5742;SDS011;2896;53.500;10.020;2023-05-31T02:40:51;5.40;;;4.77;;
5742;SDS011;2896;53.500;10.020;2023-05-31T02:43:17;6.70;;;4.10;;
5742;SDS011;2896;53.500;10.020;2023-05-31T02:45:44;5.50;;;4.43;;
5742;SDS011;2896;53.500;10.020;2023-05-31T02:48:11;5.73;;;4.70;;
5742;SDS011;2896;53.500;10.020;2023-05-31T02:50:37;8.93;;;4.07;;
5742;SDS011;2896;53.500;10.020;2023-05-31T02:53:06;5.47;;;4.70;;
5742;SDS011;2896;53.500;10.020;2023-05-31T02:55:33;5.13;;;4.00;;
5742;SDS011;2896;53.500;10.020;2023-05-31T02:57:59;4.80;;;4.20;;
5742;SDS011;2896;53.500;10.020;2023-05-31T03:00:26;7.13;;;4.67;;
5742;SDS011;2896;53.500;10.020;2023-05-31T03:02:53;6.03;;;4.70;;
5742;SDS011;2896;53.500;10.020;2023-05-31T03:05:20;5.33;;;4.30;;
5742;SDS011;2896;53.500;10.020;2023-05-31T03:07:48;5.77;;;4.80;;
5742;SDS011;2896;53.500;10.020;2023-05-31T03:10:16;7.03;;;4.50;;
5742;SDS011;2896;53.500;10.020;2023-05-31T03:12:42;6.13;;;4.30;;
5742;SDS011;2896;53.500;10.020;2023-05-31T03:15:09;5.23;;;4.70;;
5742;SDS011;2896;53.500;10.020;2023-05-31T03:17:36;6.73;;;4.80;;
5742;SDS011;2896;53.500;10.020;2023-05-31T03:20:04;6.27;;;4.40;;
5742;SDS011;2896;53.500;10.020;2023-05-31T03:22:34;6.73;;;4.20;;
5742;SDS011;2896;53.500;10.020;2023-05-31T03:25:01;6.70;;;4.87;;
5742;SDS011;2896;53.500;10.020;2023-05-31T03:27:30;5.90;;;4.77;;
5742;SDS011;2896;53.500;10.020;2023-05-31T03:29:56;10.63;;;4.50;;
5742;SDS011;2896;53.500;10.020;2023-05-31T03:32:23;5.13;;;4.13;;
5742;SDS011;2896;53.500;10.020;2023-05-31T03:34:50;6.73;;;4.83;;
5742;SDS011;2896;53.500;10.020;2023-05-31T03:37:16;7.40;;;4.00;;
5742;SDS011;2896;53.500;10.020;2023-05-31T03:39:43;11.80;;;4.90;;
5742;SDS011;2896;53.500;10.020;2023-05-31T03:42:10;6.67;;;5.13;;
5742;SDS011;2896;53.500;10.020;2023-05-31T03:44:38;7.90;;;5.20;;
5742;SDS011;2896;53.500;10.020;2023-05-31T03:47:05;11.53;;;5.67;;
5742;SDS011;2896;53.500;10.020;2023-05-31T03:49:32;6.33;;;4.40;;
5742;SDS011;2896;53.500;10.020;2023-05-31T03:51:59;7.07;;;5.27;;
5742;SDS011;2896;53.500;10.020;2023-05-31T03:54:26;8.83;;;4.90;;
5742;SDS011;2896;53.500;10.020;2023-05-31T03:56:52;5.43;;;4.40;;
5742;SDS011;2896;53.500;10.020;2023-05-31T03:59:19;5.40;;;4.73;;
5742;SDS011;2896;53.500;10.020;2023-05-31T04:01:47;5.50;;;4.73;;
5742;SDS011;2896;53.500;10.020;2023-05-31T04:04:13;9.20;;;4.60;;
5742;SDS011;2896;53.500;10.020;2023-05-31T04:06:40;5.37;;;4.87;;
5742;SDS011;2896;53.500;10.020;2023-05-31T04:09:07;6.13;;;4.70;;
5742;SDS011;2896;53.500;10.020;2023-05-31T04:11:33;5.37;;;4.60;;
5742;SDS011;2896;53.500;10.020;2023-05-31T04:14:00;5.27;;;4.70;;
5742;SDS011;2896;53.500;10.020;2023-05-31T04:16:27;5.23;;;4.80;;
5742;SDS011;2896;53.500;10.020;2023-05-31T04:18:55;7.53;;;5.17;;
5742;SDS011;2896;53.500;10.020;2023-05-31T04:21:21;6.97;;;5.00;;
5742;SDS011;2896;53.500;10.020;2023-05-31T04:23:48;5.60;;;5.10;;
5742;SDS011;2896;53.500;10.020;2023-05-31T04:26:14;9.50;;;5.50;;
5742;SDS011;2896;53.500;10.020;2023-05-31T04:28:42;6.40;;;5.03;;
5742;SDS011;2896;53.500;10.020;2023-05-31T04:31:09;5.73;;;5.13;;
5742;SDS011;2896;53.500;10.020;2023-05-31T04:33:36;6.00;;;4.37;;
5742;SDS011;2896;53.500;10.020;2023-05-31T04:36:05;6.67;;;5.40;;
5742;SDS011;2896;53.500;10.020;2023-05-31T04:38:33;6.50;;;5.07;;
5742;SDS011;2896;53.500;10.020;2023-05-31T04:41:00;6.67;;;5.20;;
5742;SDS011;2896;53.500;10.020;2023-05-31T04:43:26;6.37;;;5.63;;
5742;SDS011;2896;53.500;10.020;2023-05-31T04:45:53;8.57;;;6.17;;
5742;SDS011;2896;53.500;10.020;2023-05-31T04:48:20;8.53;;;6.63;;
5742;SDS011;2896;53.500;10.020;2023-05-31T04:50:47;9.90;;;5.83;;
5742;SDS011;2896;53.500;10.020;2023-05-31T04:53:15;15.00;;;6.20;;
5742;SDS011;2896;53.500;10.020;2023-05-31T04:55:42;8.40;;;6.03;;
5742;SDS011;2896;53.500;10.020;2023-05-31T04:58:08;8.03;;;6.13;;
5742;SDS011;2896;53.500;10.020;2023-05-31T05:00:35;6.70;;;6.00;;
5742;SDS011;2896;53.500;10.020;2023-05-31T05:03:02;9.67;;;6.30;;
5742;SDS011;2896;53.500;10.020;2023-05-31T05:05:29;10.80;;;6.63;;
5742;SDS011;2896;53.500;10.020;2023-05-31T05:07:56;8.27;;;6.83;;
5742;SDS011;2896;53.500;10.020;2023-05-31T05:10:24;10.53;;;6.87;;
5742;SDS011;2896;53.500;10.020;2023-05-31T05:12:51;8.50;;;7.10;;
5742;SDS011;2896;53.500;10.020;2023-05-31T05:15:17;10.73;;;7.27;;
5742;SDS011;2896;53.500;10.020;2023-05-31T05:17:44;9.43;;;7.30;;
5742;SDS011;2896;53.500;10.020;2023-05-31T05:20:11;10.53;;;6.77;;
5742;SDS011;2896;53.500;10.020;2023-05-31T05:22:38;15.10;;;7.97;;
5742;SDS011;2896;53.500;10.020;2023-05-31T05:25:05;9.07;;;7.60;;
5742;SDS011;2896;53.500;10.020;2023-05-31T05:27:34;13.87;;;8.93;;
5742;SDS011;2896;53.500;10.020;2023-05-31T05:30:00;17.53;;;9.17;;
5742;SDS011;2896;53.500;10.020;2023-05-31T05:32:28;19.40;;;8.50;;
5742;SDS011;2896;53.500;10.020;2023-05-31T05:34:55;20.80;;;8.90;;
5742;SDS011;2896;53.500;10.020;2023-05-31T05:37:21;17.60;;;9.00;;
5742;SDS011;2896;53.500;10.020;2023-05-31T05:39:48;18.73;;;10.10;;
5742;SDS011;2896;53.500;10.020;2023-05-31T05:42:14;24.50;;;10.33;;
5742;SDS011;2896;53.500;10.020;2023-05-31T05:44:42;25.33;;;12.67;;
5742;SDS011;2896;53.500;10.020;2023-05-31T05:47:09;20.77;;;11.43;;
5742;SDS011;2896;53.500;10.020;2023-05-31T05:49:36;19.10;;;10.73;;
5742;SDS011;2896;53.500;10.020;2023-05-31T05:52:03;15.97;;;9.97;;
5742;SDS011;2896;53.500;10.020;2023-05-31T05:54:30;25.97;;;10.27;;
5742;SDS011;2896;53.500;10.020;2023-05-31T05:56:57;15.87;;;10.23;;
5742;SDS011;2896;53.500;10.020;2023-05-31T05:59:24;15.13;;;9.43;;
5742;SDS011;2896;53.500;10.020;2023-05-31T06:01:52;20.43;;;9.00;;
5742;SDS011;2896;53.500;10.020;2023-05-31T06:04:18;14.77;;;9.27;;
5742;SDS011;2896;53.500;10.020;2023-05-31T06:06:45;25.63;;;11.10;;
5742;SDS011;2896;53.500;10.020;2023-05-31T06:09:12;25.40;;;13.60;;
5742;SDS011;2896;53.500;10.020;2023-05-31T06:11:38;21.87;;;10.17;;
5742;SDS011;2896;53.500;10.020;2023-05-31T06:14:05;21.70;;;10.63;;
5742;SDS011;2896;53.500;10.020;2023-05-31T06:16:31;20.57;;;10.07;;
5742;SDS011;2896;53.500;10.020;2023-05-31T06:18:59;23.27;;;10.83;;
5742;SDS011;2896;53.500;10.020;2023-05-31T06:21:26;20.20;;;9.70;;
5742;SDS011;2896;53.500;10.020;2023-05-31T06:23:52;27.43;;;9.97;;
5742;SDS011;2896;53.500;10.020;2023-05-31T06:26:19;27.90;;;9.40;;
5742;SDS011;2896;53.500;10.020;2023-05-31T06:28:46;25.80;;;10.07;;
5742;SDS011;2896;53.500;10.020;2023-05-31T06:31:12;20.13;;;9.10;;
5742;SDS011;2896;53.500;10.020;2023-05-31T06:33:39;32.80;;;9.00;;
5742;SDS011;2896;53.500;10.020;2023-05-31T06:36:07;22.57;;;9.20;;
5742;SDS011;2896;53.500;10.020;2023-05-31T06:38:34;17.97;;;8.40;;
5742;SDS011;2896;53.500;10.020;2023-05-31T06:41:01;18.90;;;9.30;;
5742;SDS011;2896;53.500;10.020;2023-05-31T06:43:27;13.63;;;7.43;;
5742;SDS011;2896;53.500;10.020;2023-05-31T06:45:54;22.80;;;7.90;;
5742;SDS011;2896;53.500;10.020;2023-05-31T06:48:21;10.97;;;6.20;;
5742;SDS011;2896;53.500;10.020;2023-05-31T06:50:47;23.27;;;7.40;;
5742;SDS011;2896;53.500;10.020;2023-05-31T06:53:15;10.43;;;5.97;;
5742;SDS011;2896;53.500;10.020;2023-05-31T06:55:42;19.77;;;6.73;;
5742;SDS011;2896;53.500;10.020;2023-05-31T06:58:08;14.80;;;6.00;;
5742;SDS011;2896;53.500;10.020;2023-05-31T07:00:35;9.10;;;6.07;;
5742;SDS011;2896;53.500;10.020;2023-05-31T07:03:03;14.67;;;7.07;;
5742;SDS011;2896;53.500;10.020;2023-05-31T07:05:30;21.40;;;6.80;;
5742;SDS011;2896;53.500;10.020;2023-05-31T07:07:57;8.63;;;5.80;;
5742;SDS011;2896;53.500;10.020;2023-05-31T07:10:25;9.33;;;5.43;;
5742;SDS011;2896;53.500;10.020;2023-05-31T07:12:52;10.73;;;6.67;;
5742;SDS011;2896;53.500;10.020;2023-05-31T07:15:19;11.53;;;6.27;;
5742;SDS011;2896;53.500;10.020;2023-05-31T07:17:45;15.10;;;6.40;;
5742;SDS011;2896;53.500;10.020;2023-05-31T07:20:12;15.67;;;6.70;;
5742;SDS011;2896;53.500;10.020;2023-05-31T07:22:39;16.93;;;6.80;;
5742;SDS011;2896;53.500;10.020;2023-05-31T07:25:06;10.67;;;6.23;;
5742;SDS011;2896;53.500;10.020;2023-05-31T07:27:34;18.27;;;5.67;;
5742;SDS011;2896;53.500;10.020;2023-05-31T07:30:02;14.03;;;5.93;;
5742;SDS011;2896;53.500;10.020;2023-05-31T07:32:28;11.00;;;5.23;;
5742;SDS011;2896;53.500;10.020;2023-05-31T07:34:55;12.53;;;5.90;;
5742;SDS011;2896;53.500;10.020;2023-05-31T07:37:22;15.70;;;5.33;;
5742;SDS011;2896;53.500;10.020;2023-05-31T07:39:49;10.07;;;4.70;;
5742;SDS011;2896;53.500;10.020;2023-05-31T07:42:15;12.80;;;5.33;;
5742;SDS011;2896;53.500;10.020;2023-05-31T07:44:43;9.63;;;5.33;;
5742;SDS011;2896;53.500;10.020;2023-05-31T07:47:10;11.87;;;6.53;;
5742;SDS011;2896;53.500;10.020;2023-05-31T07:49:36;16.90;;;5.83;;
5742;SDS011;2896;53.500;10.020;2023-05-31T07:52:03;12.30;;;5.70;;
5742;SDS011;2896;53.500;10.020;2023-05-31T07:54:30;20.40;;;5.60;;
5742;SDS011;2896;53.500;10.020;2023-05-31T07:56:57;19.43;;;5.90;;
5742;SDS011;2896;53.500;10.020;2023-05-31T07:59:24;24.40;;;5.93;;
5742;SDS011;2896;53.500;10.020;2023-05-31T08:01:52;23.70;;;7.13;;
5742;SDS011;2896;53.500;10.020;2023-05-31T08:04:18;14.00;;;4.67;;
5742;SDS011;2896;53.500;10.020;2023-05-31T08:06:46;16.73;;;5.13;;
5742;SDS011;2896;53.500;10.020;2023-05-31T08:09:12;12.07;;;4.80;;
5742;SDS011;2896;53.500;10.020;2023-05-31T08:11:39;18.53;;;4.50;;
5742;SDS011;2896;53.500;10.020;2023-05-31T08:14:06;8.93;;;5.00;;
5742;SDS011;2896;53.500;10.020;2023-05-31T08:16:33;12.37;;;4.40;;
5742;SDS011;2896;53.500;10.020;2023-05-31T08:19:01;12.53;;;4.63;;
5742;SDS011;2896;53.500;10.020;2023-05-31T08:21:27;5.20;;;3.50;;
5742;SDS011;2896;53.500;10.020;2023-05-31T08:23:54;11.37;;;2.77;;
5742;SDS011;2896;53.500;10.020;2023-05-31T08:26:21;8.93;;;2.50;;
5742;SDS011;2896;53.500;10.020;2023-05-31T08:28:48;4.97;;;2.73;;
5742;SDS011;2896;53.500;10.020;2023-05-31T08:31:15;4.70;;;2.83;;
5742;SDS011;2896;53.500;10.020;2023-05-31T08:33:51;3.50;;;2.67;;
5742;SDS011;2896;53.500;10.020;2023-05-31T08:36:21;5.10;;;2.90;;
5742;SDS011;2896;53.500;10.020;2023-05-31T08:38:48;8.33;;;2.37;;
5742;SDS011;2896;53.500;10.020;2023-05-31T08:41:15;7.03;;;2.40;;
5742;SDS011;2896;53.500;10.020;2023-05-31T08:43:42;6.23;;;2.30;;
5742;SDS011;2896;53.500;10.020;2023-05-31T08:46:10;2.47;;;2.30;;
5742;SDS011;2896;53.500;10.020;2023-05-31T08:48:39;2.40;;;2.10;;
5742;SDS011;2896;53.500;10.020;2023-05-31T08:51:09;5.13;;;2.67;;
5742;SDS011;2896;53.500;10.020;2023-05-31T08:53:37;10.10;;;2.80;;
5742;SDS011;2896;53.500;10.020;2023-05-31T08:56:06;11.03;;;3.03;;
5742;SDS011;2896;53.500;10.020;2023-05-31T08:58:34;4.67;;;2.43;;
5742;SDS011;2896;53.500;10.020;2023-05-31T09:01:02;3.87;;;2.27;;
5742;SDS011;2896;53.500;10.020;2023-05-31T09:03:30;6.07;;;2.50;;
5742;SDS011;2896;53.500;10.020;2023-05-31T09:05:58;6.30;;;2.53;;
5742;SDS011;2896;53.500;10.020;2023-05-31T09:08:24;3.53;;;2.10;;
5742;SDS011;2896;53.500;10.020;2023-05-31T09:10:52;4.23;;;2.60;;
5742;SDS011;2896;53.500;10.020;2023-05-31T09:13:19;7.70;;;1.80;;
5742;SDS011;2896;53.500;10.020;2023-05-31T09:15:46;2.53;;;1.87;;
5742;SDS011;2896;53.500;10.020;2023-05-31T09:18:14;4.93;;;1.90;;
5742;SDS011;2896;53.500;10.020;2023-05-31T09:20:42;6.60;;;1.93;;
5742;SDS011;2896;53.500;10.020;2023-05-31T09:23:09;6.33;;;2.27;;
5742;SDS011;2896;53.500;10.020;2023-05-31T09:25:42;4.20;;;2.10;;
5742;SDS011;2896;53.500;10.020;2023-05-31T09:28:12;2.10;;;1.93;;
5742;SDS011;2896;53.500;10.020;2023-05-31T09:30:39;1.73;;;1.60;;
5742;SDS011;2896;53.500;10.020;2023-05-31T09:33:06;4.23;;;2.13;;
5742;SDS011;2896;53.500;10.020;2023-05-31T09:35:33;2.07;;;1.87;;
5742;SDS011;2896;53.500;10.020;2023-05-31T09:38:02;2.03;;;1.77;;
5742;SDS011;2896;53.500;10.020;2023-05-31T09:40:31;7.97;;;2.10;;
5742;SDS011;2896;53.500;10.020;2023-05-31T09:42:58;6.13;;;2.60;;
5742;SDS011;2896;53.500;10.020;2023-05-31T09:45:28;2.57;;;2.37;;
5742;SDS011;2896;53.500;10.020;2023-05-31T09:47:54;10.70;;;2.80;;
5742;SDS011;2896;53.500;10.020;2023-05-31T09:50:22;5.13;;;2.37;;
5742;SDS011;2896;53.500;10.020;2023-05-31T09:52:55;6.43;;;2.73;;
5742;SDS011;2896;53.500;10.020;2023-05-31T09:55:23;5.60;;;2.70;;
5742;SDS011;2896;53.500;10.020;2023-05-31T09:57:51;6.40;;;3.00;;
5742;SDS011;2896;53.500;10.020;2023-05-31T10:00:20;6.50;;;2.60;;
5742;SDS011;2896;53.500;10.020;2023-05-31T10:02:49;14.57;;;3.47;;
5742;SDS011;2896;53.500;10.020;2023-05-31T10:05:17;12.50;;;3.17;;
5742;SDS011;2896;53.500;10.020;2023-05-31T10:07:45;12.43;;;2.90;;
5742;SDS011;2896;53.500;10.020;2023-05-31T10:10:13;11.10;;;3.27;;
5742;SDS011;2896;53.500;10.020;2023-05-31T10:12:45;9.80;;;3.20;;
5742;SDS011;2896;53.500;10.020;2023-05-31T10:15:17;9.17;;;3.17;;
5742;SDS011;2896;53.500;10.020;2023-05-31T10:17:50;8.13;;;3.20;;
5742;SDS011;2896;53.500;10.020;2023-05-31T10:20:21;6.53;;;3.20;;
5742;SDS011;2896;53.500;10.020;2023-05-31T10:22:50;10.60;;;3.50;;
5742;SDS011;2896;53.500;10.020;2023-05-31T10:25:23;12.47;;;3.37;;
5742;SDS011;2896;53.500;10.020;2023-05-31T10:27:53;14.90;;;3.33;;
5742;SDS011;2896;53.500;10.020;2023-05-31T10:30:26;6.10;;;2.77;;
5742;SDS011;2896;53.500;10.020;2023-05-31T10:32:59;5.07;;;2.53;;
5742;SDS011;2896;53.500;10.020;2023-05-31T10:35:31;6.30;;;2.97;;
5742;SDS011;2896;53.500;10.020;2023-05-31T10:37:58;11.60;;;2.80;;
5742;SDS011;2896;53.500;10.020;2023-05-31T10:40:28;14.23;;;2.90;;
5742;SDS011;2896;53.500;10.020;2023-05-31T10:42:59;9.20;;;3.10;;
5742;SDS011;2896;53.500;10.020;2023-05-31T10:45:32;8.00;;;2.97;;
5742;SDS011;2896;53.500;10.020;2023-05-31T10:48:10;10.47;;;2.90;;
5742;SDS011;2896;53.500;10.020;2023-05-31T10:50:53;4.97;;;2.57;;
5742;SDS011;2896;53.500;10.020;2023-05-31T10:53:20;9.23;;;2.90;;
5742;SDS011;2896;53.500;10.020;2023-05-31T10:55:47;8.17;;;3.40;;
5742;SDS011;2896;53.500;10.020;2023-05-31T10:58:24;6.50;;;3.23;;
5742;SDS011;2896;53.500;10.020;2023-05-31T11:00:53;6.10;;;2.60;;
5742;SDS011;2896;53.500;10.020;2023-05-31T11:03:22;14.10;;;3.83;;
5742;SDS011;2896;53.500;10.020;2023-05-31T11:05:56;12.90;;;3.47;;
5742;SDS011;2896;53.500;10.020;2023-05-31T11:08:24;9.93;;;2.77;;
5742;SDS011;2896;53.500;10.020;2023-05-31T11:10:51;4.67;;;2.73;;
5742;SDS011;2896;53.500;10.020;2023-05-31T11:13:18;4.10;;;2.70;;
5742;SDS011;2896;53.500;10.020;2023-05-31T11:15:45;7.30;;;2.70;;
5742;SDS011;2896;53.500;10.020;2023-05-31T11:18:16;7.53;;;2.60;;
5742;SDS011;2896;53.500;10.020;2023-05-31T11:20:52;3.27;;;2.57;;
5742;SDS011;2896;53.500;10.020;2023-05-31T11:23:31;9.30;;;2.33;;
5742;SDS011;2896;53.500;10.020;2023-05-31T11:26:06;3.20;;;1.90;;
5742;SDS011;2896;53.500;10.020;2023-05-31T11:28:53;10.13;;;2.43;;
5742;SDS011;2896;53.500;10.020;2023-05-31T11:34:25;5.80;;;2.33;;
5742;SDS011;2896;53.500;10.020;2023-05-31T11:36:56;7.40;;;2.53;;
5742;SDS011;2896;53.500;10.020;2023-05-31T11:39:23;4.53;;;2.30;;
5742;SDS011;2896;53.500;10.020;2023-05-31T11:41:51;9.23;;;2.10;;
5742;SDS011;2896;53.500;10.020;2023-05-31T11:44:19;4.07;;;2.47;;
5742;SDS011;2896;53.500;10.020;2023-05-31T11:46:53;2.83;;;2.17;;
5742;SDS011;2896;53.500;10.020;2023-05-31T11:49:27;5.07;;;2.60;;
5742;SDS011;2896;53.500;10.020;2023-05-31T11:51:55;13.23;;;2.80;;
5742;SDS011;2896;53.500;10.020;2023-05-31T11:54:26;4.70;;;2.70;;
5742;SDS011;2896;53.500;10.020;2023-05-31T11:56:58;4.13;;;2.40;;
5742;SDS011;2896;53.500;10.020;2023-05-31T11:59:27;2.77;;;2.57;;
5742;SDS011;2896;53.500;10.020;2023-05-31T12:01:58;5.20;;;2.20;;
5742;SDS011;2896;53.500;10.020;2023-05-31T12:04:33;13.40;;;2.67;;
5742;SDS011;2896;53.500;10.020;2023-05-31T12:07:02;7.27;;;2.20;;
5742;SDS011;2896;53.500;10.020;2023-05-31T12:09:29;4.43;;;2.77;;
5742;SDS011;2896;53.500;10.020;2023-05-31T12:11:56;3.43;;;1.73;;
5742;SDS011;2896;53.500;10.020;2023-05-31T12:14:23;9.20;;;2.77;;
5742;SDS011;2896;53.500;10.020;2023-05-31T12:16:51;10.43;;;2.10;;
5742;SDS011;2896;53.500;10.020;2023-05-31T12:19:18;3.87;;;2.00;;
5742;SDS011;2896;53.500;10.020;2023-05-31T12:21:46;4.00;;;2.13;;
5742;SDS011;2896;53.500;10.020;2023-05-31T12:24:13;3.77;;;1.70;;
5742;SDS011;2896;53.500;10.020;2023-05-31T12:26:41;3.27;;;2.10;;
5742;SDS011;2896;53.500;10.020;2023-05-31T12:29:09;2.20;;;1.90;;
5742;SDS011;2896;53.500;10.020;2023-05-31T12:31:37;4.33;;;1.87;;
5742;SDS011;2896;53.500;10.020;2023-05-31T12:34:07;5.53;;;2.10;;
5742;SDS011;2896;53.500;10.020;2023-05-31T12:36:39;5.10;;;1.90;;
5742;SDS011;2896;53.500;10.020;2023-05-31T12:39:09;6.10;;;1.80;;
5742;SDS011;2896;53.500;10.020;2023-05-31T12:41:38;10.23;;;1.93;;
5742;SDS011;2896;53.500;10.020;2023-05-31T12:44:07;5.63;;;2.20;;
5742;SDS011;2896;53.500;10.020;2023-05-31T12:46:37;4.97;;;1.70;;
5742;SDS011;2896;53.500;10.020;2023-05-31T12:49:13;6.13;;;2.60;;
5742;SDS011;2896;53.500;10.020;2023-05-31T12:51:45;5.43;;;2.00;;
5742;SDS011;2896;53.500;10.020;2023-05-31T12:54:13;4.00;;;2.20;;
5742;SDS011;2896;53.500;10.020;2023-05-31T12:56:42;10.63;;;2.30;;
5742;SDS011;2896;53.500;10.020;2023-05-31T12:59:09;5.30;;;1.97;;
5742;SDS011;2896;53.500;10.020;2023-05-31T13:01:36;7.87;;;2.00;;
5742;SDS011;2896;53.500;10.020;2023-05-31T13:04:05;3.63;;;2.00;;
5742;SDS011;2896;53.500;10.020;2023-05-31T13:06:32;6.07;;;2.17;;
5742;SDS011;2896;53.500;10.020;2023-05-31T13:08:59;11.30;;;2.27;;
5742;SDS011;2896;53.500;10.020;2023-05-31T13:11:30;8.27;;;2.30;;
5742;SDS011;2896;53.500;10.020;2023-05-31T13:13:58;5.23;;;2.50;;
5742;SDS011;2896;53.500;10.020;2023-05-31T13:16:25;4.77;;;2.07;;
5742;SDS011;2896;53.500;10.020;2023-05-31T13:18:52;5.43;;;2.50;;
5742;SDS011;2896;53.500;10.020;2023-05-31T13:21:18;8.60;;;2.00;;
5742;SDS011;2896;53.500;10.020;2023-05-31T13:23:45;6.13;;;1.70;;
5742;SDS011;2896;53.500;10.020;2023-05-31T13:26:11;7.53;;;1.90;;
5742;SDS011;2896;53.500;10.020;2023-05-31T13:28:39;12.30;;;2.20;;
5742;SDS011;2896;53.500;10.020;2023-05-31T13:31:06;1.97;;;1.77;;
5742;SDS011;2896;53.500;10.020;2023-05-31T13:33:33;10.83;;;1.87;;
5742;SDS011;2896;53.500;10.020;2023-05-31T13:36:00;2.00;;;1.80;;
5742;SDS011;2896;53.500;10.020;2023-05-31T13:38:26;7.40;;;1.73;;
5742;SDS011;2896;53.500;10.020;2023-05-31T13:40:53;3.03;;;1.80;;
5742;SDS011;2896;53.500;10.020;2023-05-31T13:43:20;3.80;;;1.73;;
5742;SDS011;2896;53.500;10.020;2023-05-31T13:45:50;6.00;;;1.67;;
5742;SDS011;2896;53.500;10.020;2023-05-31T13:48:16;11.90;;;1.70;;
5742;SDS011;2896;53.500;10.020;2023-05-31T13:50:43;4.43;;;1.90;;
5742;SDS011;2896;53.500;10.020;2023-05-31T13:53:10;6.70;;;2.43;;
5742;SDS011;2896;53.500;10.020;2023-05-31T13:55:37;1.93;;;1.83;;
5742;SDS011;2896;53.500;10.020;2023-05-31T13:58:04;11.70;;;1.73;;
5742;SDS011;2896;53.500;10.020;2023-05-31T14:00:31;3.90;;;1.70;;
5742;SDS011;2896;53.500;10.020;2023-05-31T14:02:59;5.33;;;1.70;;
5742;SDS011;2896;53.500;10.020;2023-05-31T14:05:27;7.70;;;2.13;;
5742;SDS011;2896;53.500;10.020;2023-05-31T14:07:54;2.20;;;1.30;;
5742;SDS011;2896;53.500;10.020;2023-05-31T14:10:22;4.20;;;1.30;;
5742;SDS011;2896;53.500;10.020;2023-05-31T14:12:49;3.00;;;1.60;;
5742;SDS011;2896;53.500;10.020;2023-05-31T14:15:17;3.17;;;1.60;;
5742;SDS011;2896;53.500;10.020;2023-05-31T14:17:43;1.57;;;1.47;;
5742;SDS011;2896;53.500;10.020;2023-05-31T14:20:11;4.00;;;1.67;;
5742;SDS011;2896;53.500;10.020;2023-05-31T14:22:39;1.70;;;1.50;;
5742;SDS011;2896;53.500;10.020;2023-05-31T14:25:06;4.73;;;1.40;;
5742;SDS011;2896;53.500;10.020;2023-05-31T14:27:33;4.13;;;1.60;;
5742;SDS011;2896;53.500;10.020;2023-05-31T14:30:00;8.50;;;2.47;;
5742;SDS011;2896;53.500;10.020;2023-05-31T14:32:26;3.53;;;1.90;;
5742;SDS011;2896;53.500;10.020;2023-05-31T14:34:53;3.07;;;1.77;;
5742;SDS011;2896;53.500;10.020;2023-05-31T14:37:21;3.40;;;1.63;;
5742;SDS011;2896;53.500;10.020;2023-05-31T14:39:47;15.63;;;2.13;;
5742;SDS011;2896;53.500;10.020;2023-05-31T14:42:14;5.07;;;2.03;;
5742;SDS011;2896;53.500;10.020;2023-05-31T14:44:41;9.07;;;2.63;;
5742;SDS011;2896;53.500;10.020;2023-05-31T14:47:08;9.63;;;1.90;;
5742;SDS011;2896;53.500;10.020;2023-05-31T14:49:34;5.47;;;2.60;;
5742;SDS011;2896;53.500;10.020;2023-05-31T14:52:01;4.53;;;2.43;;
5742;SDS011;2896;53.500;10.020;2023-05-31T14:54:29;11.50;;;2.50;;
5742;SDS011;2896;53.500;10.020;2023-05-31T14:56:56;4.93;;;2.43;;
5742;SDS011;2896;53.500;10.020;2023-05-31T14:59:23;3.30;;;2.00;;
5742;SDS011;2896;53.500;10.020;2023-05-31T15:01:53;7.63;;;2.50;;
5742;SDS011;2896;53.500;10.020;2023-05-31T15:04:22;6.30;;;2.50;;
5742;SDS011;2896;53.500;10.020;2023-05-31T15:06:49;4.53;;;2.30;;